Time;durP1;ratioP1;P1;durP2;ratioP2;P2;SDS_P1;SDS_P2;PMS_P1;PMS_P2;Temp;Humidity;BMP_temperature;BMP_pressure;BME280_temperature;BME280_humidity;BME280_pressure;Samples;Min_cycle;Max_cycle;Signal;HPM_P1;HPM_P2
2021/03/11 00:00:12;;;;;;;69.77;26.67;;;-7.30;83.00;;;;;;5013833;28;20411;-78
2021/03/11 00:02:37;;;;;;;60.67;24.73;;;-7.30;83.20;;;;;;5014692;28;20033;-78
2021/03/11 00:05:09;;;;;;;67.53;27.80;;;-7.30;83.10;;;;;;4995524;28;20418;-78
2021/03/11 00:07:35;;;;;;;77.90;30.07;;;-7.30;83.50;;;;;;5010148;28;20030;-78
2021/03/11 00:10:01;;;;;;;118.07;41.60;;;-7.20;83.20;;;;;;5014995;28;20476;-78
2021/03/11 00:12:26;;;;;;;159.50;52.53;;;-7.20;82.90;;;;;;5015037;28;20115;-78
2021/03/11 00:14:52;;;;;;;136.90;48.37;;;-7.30;83.20;;;;;;5012896;28;20036;-78
2021/03/11 00:17:18;;;;;;;111.33;40.53;;;-7.30;83.50;;;;;;5013651;28;20018;-78
2021/03/11 00:19:44;;;;;;;102.30;37.27;;;-7.30;84.40;;;;;;5014775;28;20033;-78
2021/03/11 00:22:11;;;;;;;89.37;34.87;;;-7.30;84.10;;;;;;5012290;28;20026;-78
2021/03/11 00:24:36;;;;;;;58.57;23.30;;;-7.30;82.70;;;;;;5012556;28;20033;-78
2021/03/11 00:27:02;;;;;;;105.27;34.47;;;-7.30;82.20;;;;;;5014637;28;20038;-78
2021/03/11 00:29:28;;;;;;;59.93;24.80;;;-7.30;81.20;;;;;;5014241;28;20029;-79
2021/03/11 00:31:54;;;;;;;48.83;21.40;;;-7.30;81.20;;;;;;5014471;28;20026;-78
2021/03/11 00:34:20;;;;;;;45.00;20.17;;;-7.30;81.00;;;;;;5029834;28;20026;-78
2021/03/11 00:36:46;;;;;;;52.57;20.77;;;-7.30;80.20;;;;;;5014573;28;20499;-78
2021/03/11 00:39:14;;;;;;;52.97;21.67;;;-7.30;79.40;;;;;;5014612;28;20029;-78
2021/03/11 00:41:40;;;;;;;68.90;26.07;;;-7.30;79.60;;;;;;5013000;28;20026;-79
2021/03/11 00:44:06;;;;;;;84.40;31.30;;;-7.30;79.90;;;;;;5014682;28;20426;-78
2021/03/11 00:46:31;;;;;;;89.67;29.80;;;-7.40;80.30;;;;;;5012909;28;20030;-80
2021/03/11 00:48:57;;;;;;;63.80;25.13;;;-7.40;80.90;;;;;;5014199;28;20113;-78
2021/03/11 00:51:23;;;;;;;94.87;30.27;;;-7.40;80.70;;;;;;5012913;28;20053;-78
2021/03/11 00:53:48;;;;;;;86.93;31.13;;;-7.40;80.80;;;;;;5014136;28;20365;-78
2021/03/11 00:56:14;;;;;;;66.63;28.70;;;-7.50;80.90;;;;;;5014322;28;20018;-78
2021/03/11 00:58:40;;;;;;;76.90;28.53;;;-7.50;80.80;;;;;;5013803;28;20448;-78
2021/03/11 01:01:05;;;;;;;59.80;24.90;;;-7.50;81.40;;;;;;5012616;28;20101;-79
2021/03/11 01:03:31;;;;;;;114.63;42.20;;;-7.50;81.50;;;;;;5014067;28;20050;-78
2021/03/11 01:05:56;;;;;;;110.60;41.60;;;-7.50;81.10;;;;;;5013892;28;20395;-80
2021/03/11 01:08:22;;;;;;;109.67;39.60;;;-7.70;82.00;;;;;;5012864;28;20504;-79
2021/03/11 01:10:48;;;;;;;93.13;37.43;;;-7.80;82.90;;;;;;5013877;28;20065;-78
2021/03/11 01:13:14;;;;;;;98.80;38.53;;;-7.90;83.70;;;;;;5013673;28;20022;-78
2021/03/11 01:15:41;;;;;;;97.87;36.53;;;-8.00;84.90;;;;;;5013313;28;20030;-78
2021/03/11 01:18:08;;;;;;;101.97;37.93;;;-8.00;85.90;;;;;;5013879;28;20029;-81
2021/03/11 01:20:34;;;;;;;117.20;42.43;;;-8.00;87.00;;;;;;5013488;28;20488;-81
2021/03/11 01:23:00;;;;;;;110.37;42.33;;;-8.10;87.70;;;;;;5028836;28;20052;-81
2021/03/11 01:25:25;;;;;;;82.27;28.07;;;-8.10;87.60;;;;;;5012363;28;20056;-81
2021/03/11 01:27:51;;;;;;;72.40;30.60;;;-8.10;87.20;;;;;;5013491;28;20551;-81
2021/03/11 01:30:17;;;;;;;62.37;26.23;;;-8.10;87.10;;;;;;5013086;28;20084;-78
2021/03/11 01:32:43;;;;;;;52.20;21.33;;;-8.10;87.50;;;;;;5012248;28;20018;-78
2021/03/11 01:35:09;;;;;;;46.43;20.47;;;-8.00;87.50;;;;;;5013515;28;20025;-78
2021/03/11 01:37:35;;;;;;;36.40;18.37;;;-8.00;87.00;;;;;;5028679;28;20018;-78
2021/03/11 01:40:01;;;;;;;35.07;16.50;;;-7.90;85.90;;;;;;5012166;28;20022;-78
2021/03/11 01:42:27;;;;;;;38.50;18.83;;;-7.90;84.90;;;;;;5011769;28;20033;-79
2021/03/11 01:44:53;;;;;;;49.57;22.20;;;-7.90;83.80;;;;;;5010404;28;20030;-78
2021/03/11 01:47:18;;;;;;;65.87;22.97;;;-7.90;84.20;;;;;;5011491;28;20038;-79
2021/03/11 01:49:44;;;;;;;55.67;24.33;;;-7.90;85.20;;;;;;5011928;28;20060;-78
2021/03/11 01:52:10;;;;;;;52.13;22.80;;;-7.90;85.50;;;;;;5011982;28;20483;-78
2021/03/11 01:54:35;;;;;;;39.33;19.30;;;-7.90;85.80;;;;;;5013168;28;20029;-78
2021/03/11 01:57:01;;;;;;;46.90;20.03;;;-7.90;85.70;;;;;;5013207;28;20022;-78
2021/03/11 01:59:27;;;;;;;67.63;26.20;;;-7.90;85.10;;;;;;5011667;28;20045;-78
2021/03/11 02:01:55;;;;;;;61.63;26.53;;;-7.90;84.50;;;;;;5013193;28;20056;-78
2021/03/11 02:04:21;;;;;;;67.33;24.50;;;-7.90;83.90;;;;;;5011927;28;20028;-78
2021/03/11 02:06:47;;;;;;;50.07;22.73;;;-7.90;84.30;;;;;;5028148;28;20112;-78
2021/03/11 02:09:12;;;;;;;54.97;22.53;;;-8.00;84.90;;;;;;5013170;28;20379;-78
2021/03/11 02:11:43;;;;;;;59.47;23.43;;;-8.00;84.90;;;;;;5013649;28;20036;-78
2021/03/11 02:14:55;;;;;;;66.93;25.80;;;-8.00;84.00;;;;;;5032458;28;20022;-80
2021/03/11 02:17:25;;;;;;;75.17;30.57;;;-8.10;83.30;;;;;;5010007;28;20117;-78
2021/03/11 02:19:59;;;;;;;62.10;26.70;;;-8.10;84.10;;;;;;5015716;28;20038;-78
2021/03/11 02:22:56;;;;;;;54.63;22.13;;;-8.10;84.60;;;;;;5017096;28;20104;-78
2021/03/11 02:25:30;;;;;;;39.70;16.50;;;-8.20;85.40;;;;;;5015805;28;20044;-78
2021/03/11 02:28:27;;;;;;;38.37;16.70;;;-8.20;86.20;;;;;;5032090;28;20038;-78
2021/03/11 02:30:57;;;;;;;37.80;15.77;;;-8.20;86.30;;;;;;5016296;28;20088;-78
2021/03/11 02:33:25;;;;;;;27.77;14.37;;;-8.10;86.20;;;;;;5015459;28;20057;-79
2021/03/11 02:35:54;;;;;;;45.23;16.97;;;-8.00;85.70;;;;;;5016564;28;20045;-79
2021/03/11 02:38:22;;;;;;;26.50;14.57;;;-7.90;85.00;;;;;;5032019;28;20368;-79
2021/03/11 02:40:51;;;;;;;42.90;17.43;;;-7.80;84.70;;;;;;5016583;28;20079;-78
2021/03/11 02:43:17;;;;;;;35.20;16.17;;;-7.70;83.80;;;;;;5031922;28;20539;-79
2021/03/11 02:45:43;;;;;;;48.63;18.53;;;-7.70;82.90;;;;;;5016590;28;20071;-78
2021/03/11 02:48:12;;;;;;;50.10;19.87;;;-7.60;82.00;;;;;;5031446;28;20030;-78
2021/03/11 02:50:39;;;;;;;33.40;15.60;;;-7.60;81.40;;;;;;5031425;28;20026;-79
2021/03/11 02:53:08;;;;;;;40.37;19.10;;;-7.50;81.50;;;;;;5015010;28;20145;-79
2021/03/11 02:55:35;;;;;;;38.73;17.20;;;-7.40;80.50;;;;;;5031600;28;20515;-79
2021/03/11 02:58:03;;;;;;;31.43;15.03;;;-7.40;79.90;;;;;;5030772;28;20422;-79
2021/03/11 03:00:30;;;;;;;33.63;15.33;;;-7.30;79.20;;;;;;5031330;28;20109;-79
2021/03/11 03:02:57;;;;;;;52.37;21.33;;;-7.30;78.70;;;;;;5015292;28;20034;-78
2021/03/11 03:05:28;;;;;;;62.40;26.77;;;-7.30;78.10;;;;;;5015023;28;20400;-79
2021/03/11 03:07:54;;;;;;;59.97;26.50;;;-7.40;77.20;;;;;;5015763;28;20034;-79
2021/03/11 03:10:23;;;;;;;61.53;26.83;;;-7.60;77.10;;;;;;5016178;28;20261;-78
2021/03/11 03:12:50;;;;;;;53.33;24.90;;;-7.70;77.90;;;;;;5014822;28;20033;-79
2021/03/11 03:15:19;;;;;;;66.27;26.80;;;-7.90;79.30;;;;;;5016122;28;20097;-78
2021/03/11 03:17:47;;;;;;;46.97;20.00;;;-7.90;80.90;;;;;;5014282;28;20021;-79
2021/03/11 03:20:14;;;;;;;49.03;21.53;;;-8.00;81.70;;;;;;5014756;28;20018;-78
2021/03/11 03:22:41;;;;;;;48.70;19.00;;;-8.00;82.00;;;;;;5031141;28;20037;-79
2021/03/11 03:25:13;;;;;;;30.33;16.47;;;-8.00;82.00;;;;;;5029964;28;20038;-78
2021/03/11 03:27:39;;;;;;;32.20;17.98;;;-8.10;82.30;;;;;;5015722;28;20081;-78
2021/03/11 03:30:18;;;;;;;34.27;14.70;;;-8.10;82.10;;;;;;5014923;28;20468;-78
2021/03/11 03:32:45;;;;;;;30.80;14.30;;;-8.10;81.70;;;;;;5014491;28;20029;-78
2021/03/11 03:35:14;;;;;;;27.03;13.37;;;-8.10;81.20;;;;;;5014394;28;20034;-79
2021/03/11 03:37:39;;;;;;;27.33;12.07;;;-8.00;81.30;;;;;;5014302;28;20037;-78
2021/03/11 03:40:07;;;;;;;35.27;15.20;;;-8.00;80.90;;;;;;5015424;28;20480;-79
2021/03/11 03:42:41;;;;;;;44.93;19.23;;;-8.00;81.00;;;;;;5015529;28;20030;-78
2021/03/11 03:45:12;;;;;;;58.40;24.57;;;-8.10;82.10;;;;;;5030692;28;20472;-79
2021/03/11 03:47:40;;;;;;;54.80;22.93;;;-8.10;82.70;;;;;;5015279;28;20026;-78
2021/03/11 03:50:07;;;;;;;39.50;18.27;;;-8.20;82.70;;;;;;5015431;28;20014;-79
2021/03/11 03:52:33;;;;;;;32.43;15.27;;;-8.20;83.40;;;;;;5015002;28;20022;-79
2021/03/11 03:55:01;;;;;;;24.57;11.27;;;-8.30;83.80;;;;;;5015350;28;20026;-78
2021/03/11 03:57:29;;;;;;;23.93;11.93;;;-8.10;83.50;;;;;;5014039;28;20037;-79
2021/03/11 03:59:56;;;;;;;48.67;19.87;;;-7.90;81.80;;;;;;5014859;28;20022;-79
2021/03/11 04:02:22;;;;;;;59.93;22.13;;;-7.90;79.90;;;;;;5014009;28;20064;-79
2021/03/11 04:04:50;;;;;;;59.87;25.00;;;-8.10;79.00;;;;;;5013857;28;20116;-79
2021/03/11 04:07:23;;;;;;;54.07;20.23;;;-8.20;80.10;;;;;;5030404;28;20022;-79
2021/03/11 04:09:51;;;;;;;50.80;18.00;;;-8.20;81.60;;;;;;5030125;28;20043;-79
2021/03/11 04:12:18;;;;;;;47.17;18.20;;;-8.20;82.00;;;;;;5015088;28;20088;-79
2021/03/11 04:14:45;;;;;;;52.30;22.70;;;-8.10;82.00;;;;;;5014922;28;20052;-79
2021/03/11 04:17:12;;;;;;;139.97;41.20;;;-8.10;81.40;;;;;;5013308;28;20403;-79
2021/03/11 04:19:39;;;;;;;145.93;44.40;;;-8.10;80.90;;;;;;5029268;28;20058;-79
2021/03/11 04:22:06;;;;;;;369.97;101.47;;;-8.20;80.90;;;;;;5014877;28;20112;-79
2021/03/11 04:24:33;;;;;;;395.53;107.27;;;-8.30;81.40;;;;;;5014522;28;20495;-79
2021/03/11 04:27:00;;;;;;;374.73;105.13;;;-8.40;81.70;;;;;;5014632;28;20037;-79
2021/03/11 04:29:27;;;;;;;285.17;80.77;;;-8.40;82.50;;;;;;5029287;28;20048;-79
2021/03/11 04:31:53;;;;;;;327.37;95.83;;;-8.50;82.90;;;;;;5013327;28;20026;-79
2021/03/11 04:34:19;;;;;;;172.10;53.73;;;-8.50;83.50;;;;;;5014489;28;20080;-79
2021/03/11 04:36:45;;;;;;;131.93;42.30;;;-8.60;84.30;;;;;;5014160;28;20049;-79
2021/03/11 04:39:11;;;;;;;101.83;33.47;;;-8.60;85.60;;;;;;5029722;28;20084;-79
2021/03/11 04:41:37;;;;;;;73.70;25.90;;;-8.60;86.30;;;;;;5029323;28;20034;-79
2021/03/11 04:44:04;;;;;;;61.00;20.20;;;-8.60;86.50;;;;;;5014434;28;20032;-79
2021/03/11 04:46:31;;;;;;;43.33;17.43;;;-8.50;86.50;;;;;;5012969;28;20026;-79
2021/03/11 04:49:00;;;;;;;30.50;13.70;;;-8.50;86.30;;;;;;5014312;28;20045;-79
2021/03/11 04:51:26;;;;;;;46.53;16.03;;;-8.50;86.60;;;;;;5014125;28;20042;-80
2021/03/11 04:53:53;;;;;;;29.57;13.63;;;-8.40;87.10;;;;;;5014063;28;20048;-79
2021/03/11 04:56:20;;;;;;;31.33;15.07;;;-8.40;87.30;;;;;;5014298;28;20038;-79
2021/03/11 04:58:45;;;;;;;29.60;15.20;;;-8.30;87.60;;;;;;5013079;28;20030;-79
2021/03/11 05:01:15;;;;;;;29.03;14.13;;;-8.30;87.60;;;;;;5012608;28;20029;-79
2021/03/11 05:03:45;;;;;;;45.30;15.60;;;-8.20;88.00;;;;;;5012697;28;20014;-79
2021/03/11 05:06:12;;;;;;;28.70;14.37;;;-8.10;87.40;;;;;;5029258;28;20575;-80
2021/03/11 05:08:39;;;;;;;31.23;15.70;;;-8.00;86.70;;;;;;5013875;28;20026;-79
2021/03/11 05:11:04;;;;;;;37.03;16.07;;;-7.70;85.30;;;;;;5029169;28;20025;-79
2021/03/11 05:13:30;;;;;;;43.60;16.07;;;-7.60;83.60;;;;;;5012380;28;20022;-79
2021/03/11 05:16:00;;;;;;;29.37;14.13;;;-7.40;82.60;;;;;;5013666;28;20030;-79
2021/03/11 05:18:27;;;;;;;28.80;13.43;;;-7.30;81.60;;;;;;5013823;28;20034;-79
2021/03/11 05:20:53;;;;;;;33.60;13.37;;;-7.10;79.30;;;;;;5013883;28;20022;-79
2021/03/11 05:23:20;;;;;;;33.67;14.77;;;-7.00;77.70;;;;;;5012489;28;20026;-79
2021/03/11 05:25:52;;;;;;;31.00;16.00;;;-6.90;76.60;;;;;;5028592;28;20033;-79
2021/03/11 05:28:17;;;;;;;33.60;13.60;;;-6.80;76.50;;;;;;5012079;28;20018;-79
2021/03/11 05:30:43;;;;;;;39.97;15.77;;;-6.70;76.10;;;;;;5013401;28;20510;-79
2021/03/11 05:33:08;;;;;;;34.73;15.87;;;-6.70;76.20;;;;;;5012813;28;20053;-79
2021/03/11 05:35:34;;;;;;;36.00;15.67;;;-6.60;76.20;;;;;;5012186;28;20033;-79
2021/03/11 05:38:04;;;;;;;33.17;16.67;;;-6.60;76.60;;;;;;5012913;28;20053;-80
2021/03/11 05:40:30;;;;;;;40.43;17.63;;;-6.50;76.80;;;;;;5012218;28;20116;-79
2021/03/11 05:42:58;;;;;;;33.17;14.70;;;-6.50;76.00;;;;;;5011672;28;20034;-79
2021/03/11 05:45:26;;;;;;;30.00;15.17;;;-6.40;75.60;;;;;;5012665;28;20034;-79
2021/03/11 05:47:52;;;;;;;31.57;16.57;;;-6.30;75.60;;;;;;5011449;28;20026;-79
2021/03/11 05:50:18;;;;;;;32.50;14.47;;;-6.20;75.70;;;;;;5027619;28;20434;-79
2021/03/11 05:52:45;;;;;;;37.13;15.43;;;-6.10;75.90;;;;;;5011662;28;20040;-79
2021/03/11 05:55:11;;;;;;;28.73;15.07;;;-6.00;76.20;;;;;;5020870;28;20099;-79
2021/03/11 05:57:46;;;;;;;45.00;16.50;;;-5.90;76.40;;;;;;5011868;28;20026;-80
2021/03/11 06:00:15;;;;;;;42.60;18.90;;;-5.80;76.40;;;;;;5010917;28;20027;-79
2021/03/11 06:02:43;;;;;;;55.27;20.30;;;-5.70;75.40;;;;;;5011531;28;20021;-79
2021/03/11 06:05:20;;;;;;;47.30;21.43;;;-5.60;75.20;;;;;;5011618;28;20037;-80
2021/03/11 06:07:47;;;;;;;54.00;20.77;;;-5.50;75.00;;;;;;5012648;28;20522;-78
2021/03/11 06:10:15;;;;;;;41.47;18.37;;;-5.40;74.60;;;;;;5012775;28;20037;-79
2021/03/11 06:12:43;;;;;;;41.33;17.57;;;-5.20;75.00;;;;;;5012960;28;20022;-78
2021/03/11 06:15:20;;;;;;;33.37;15.10;;;-5.10;75.60;;;;;;5027918;28;20026;-78
2021/03/11 06:17:49;;;;;;;33.00;16.07;;;-4.90;73.80;;;;;;5011929;28;20502;-77
2021/03/11 06:20:14;;;;;;;31.43;14.83;;;-4.60;71.10;;;;;;5011111;28;20029;-78
2021/03/11 06:22:40;;;;;;;36.67;16.67;;;-4.40;69.00;;;;;;5010351;28;20101;-78
2021/03/11 06:25:07;;;;;;;37.93;15.57;;;-4.30;69.40;;;;;;5023750;28;20093;-78
2021/03/11 06:27:32;;;;;;;41.37;15.77;;;-4.10;67.70;;;;;;5011043;28;20042;-78
2021/03/11 06:29:58;;;;;;;31.00;13.93;;;-3.90;67.10;;;;;;5010936;28;20487;-78
2021/03/11 06:32:25;;;;;;;27.33;14.60;;;-3.70;66.60;;;;;;5007775;28;20027;-79
2021/03/11 06:34:51;;;;;;;36.30;15.77;;;-3.60;65.60;;;;;;5006143;28;20038;-79
2021/03/11 06:37:35;;;;;;;89.07;20.83;;;-3.40;65.20;;;;;;5010345;28;20104;-79
2021/03/11 06:40:18;;;;;;;36.37;14.23;;;-3.30;64.70;;;;;;5025852;28;20030;-78
2021/03/11 06:42:45;;;;;;;29.45;14.00;;;-3.20;63.40;;;;;;5009802;28;20061;-80
2021/03/11 06:45:23;;;;;;;40.50;17.58;;;-3.00;63.40;;;;;;5027845;28;20084;-80
2021/03/11 06:47:50;;;;;;;30.98;14.48;;;-2.90;62.70;;;;;;5012315;28;20013;-80
2021/03/11 06:50:16;;;;;;;31.67;16.20;;;-2.80;62.50;;;;;;5026960;28;20033;-80
2021/03/11 06:53:00;;;;;;;38.00;16.40;;;-2.60;61.90;;;;;;5011043;28;20701;-80
2021/03/11 06:55:26;;;;;;;35.55;16.65;;;-2.50;61.60;;;;;;5011659;28;20022;-80
2021/03/11 06:57:52;;;;;;;35.65;15.23;;;-2.40;61.60;;;;;;5011907;28;20049;-80
2021/03/11 07:00:21;;;;;;;32.58;15.40;;;-2.30;60.50;;;;;;5008709;28;20017;-81
2021/03/11 07:02:54;;;;;;;35.05;14.35;;;-2.10;59.80;;;;;;5012663;28;20022;-80
2021/03/11 07:05:22;;;;;;;27.15;14.63;;;-2.00;59.60;;;;;;5015146;28;20026;-80
2021/03/11 07:07:48;;;;;;;34.22;14.48;;;-1.90;59.00;;;;;;5014991;28;20034;-80
2021/03/11 07:10:27;;;;;;;34.53;16.40;;;-1.70;58.10;;;;;;5014696;28;20384;-80
2021/03/11 07:12:58;;;;;;;37.25;15.55;;;-1.50;58.80;;;;;;5012341;28;20526;-80
2021/03/11 07:15:25;;;;;;;26.50;12.98;;;-1.40;57.80;;;;;;5012391;28;20030;-80
2021/03/11 07:17:52;;;;;;;28.98;13.18;;;-1.30;57.00;;;;;;5015033;28;20057;-80
2021/03/11 07:20:20;;;;;;;28.80;13.18;;;-1.20;56.50;;;;;;5014342;28;20026;-80
2021/03/11 07:22:58;;;;;;;26.67;13.68;;;-1.10;56.10;;;;;;5013971;28;20076;-80
2021/03/11 07:25:28;;;;;;;28.98;13.43;;;-1.10;56.20;;;;;;5029980;28;20503;-81
2021/03/11 07:27:54;;;;;;;28.63;13.27;;;-1.00;57.00;;;;;;5015137;28;20025;-82
2021/03/11 07:30:22;;;;;;;28.73;13.98;;;-0.90;57.10;;;;;;5013485;28;20030;-81
2021/03/11 07:32:48;;;;;;;30.67;14.38;;;-0.80;56.50;;;;;;5012418;28;20404;-82
2021/03/11 07:35:17;;;;;;;34.00;16.17;;;-0.80;56.10;;;;;;5011983;28;20470;-80
2021/03/11 07:37:48;;;;;;;34.22;14.52;;;-0.70;55.50;;;;;;5010896;28;20045;-81
2021/03/11 07:40:15;;;;;;;29.83;14.65;;;-0.60;55.50;;;;;;5013230;28;20110;-81
2021/03/11 07:42:42;;;;;;;30.23;15.52;;;-0.40;54.70;;;;;;5008121;28;20033;-82
2021/03/11 07:45:11;;;;;;;25.73;13.30;;;-0.30;53.70;;;;;;5012888;28;20022;-81
2021/03/11 07:47:39;;;;;;;27.38;14.25;;;-0.20;52.00;;;;;;5013043;28;20021;-82
2021/03/11 07:50:08;;;;;;;36.22;15.45;;;-0.10;51.10;;;;;;5014057;28;20506;-82
2021/03/11 07:52:34;;;;;;;26.10;13.95;;;0.00;50.90;;;;;;5013975;28;20391;-82
2021/03/11 07:55:03;;;;;;;26.73;12.55;;;0.10;50.50;;;;;;5012513;28;20022;-82
2021/03/11 07:57:31;;;;;;;22.92;11.93;;;0.20;49.60;;;;;;5012925;28;20466;-81
2021/03/11 07:59:57;;;;;;;30.05;14.32;;;0.20;48.70;;;;;;5010824;28;20033;-82
2021/03/11 08:02:23;;;;;;;41.33;19.35;;;0.40;48.80;;;;;;5013023;28;20503;-81
2021/03/11 08:04:50;;;;;;;33.17;13.98;;;0.50;48.70;;;;;;5017228;28;20022;-79
2021/03/11 08:07:24;;;;;;;28.20;14.18;;;0.50;48.40;;;;;;5014518;28;20030;-80
2021/03/11 08:09:52;;;;;;;26.10;12.60;;;0.60;47.90;;;;;;5014029;28;20054;-79
2021/03/11 08:12:37;;;;;;;33.17;14.55;;;0.70;47.10;;;;;;5013156;28;20025;-79
2021/03/11 08:15:15;;;;;;;29.67;14.48;;;0.80;47.40;;;;;;5013854;28;20025;-80
2021/03/11 08:17:44;;;;;;;34.83;16.90;;;1.00;46.70;;;;;;5011460;28;20049;-79
2021/03/11 08:20:18;;;;;;;38.53;18.55;;;1.20;47.00;;;;;;5012794;28;20038;-79
2021/03/11 08:22:51;;;;;;;43.33;18.83;;;1.30;46.00;;;;;;5029227;28;20026;-79
2021/03/11 08:25:41;;;;;;;33.75;16.52;;;1.50;45.00;;;;;;5029268;28;20033;-79
2021/03/11 08:28:09;;;;;;;37.78;19.25;;;1.60;44.70;;;;;;5029585;28;20026;-79
2021/03/11 08:30:38;;;;;;;48.00;25.88;;;1.70;44.10;;;;;;5013992;28;20053;-79
2021/03/11 08:33:09;;;;;;;29.17;15.50;;;1.80;43.20;;;;;;5013925;28;20041;-79
2021/03/11 08:35:43;;;;;;;38.25;19.35;;;1.90;43.60;;;;;;5012672;28;20026;-79
2021/03/11 08:38:23;;;;;;;90.18;46.88;;;2.10;43.00;;;;;;5010067;28;20046;-79
2021/03/11 08:41:08;;;;;;;49.72;25.63;;;2.10;42.70;;;;;;5029072;28;20048;-79
2021/03/11 08:43:37;;;;;;;36.55;17.10;;;2.10;42.40;;;;;;5012198;28;20064;-79
2021/03/11 08:46:12;;;;;;;62.58;31.73;;;2.30;42.70;;;;;;5013884;28;20427;-78
2021/03/11 08:49:00;;;;;;;29.38;14.90;;;2.30;42.80;;;;;;5012465;28;20025;-80
2021/03/11 08:51:25;;;;;;;35.83;19.17;;;2.30;43.00;;;;;;5013475;28;20026;-79
2021/03/11 08:53:51;;;;;;;40.80;22.98;;;2.30;42.00;;;;;;5028604;28;20032;-79
2021/03/11 08:56:19;;;;;;;33.00;15.02;;;2.50;42.80;;;;;;5028979;28;20029;-79
2021/03/11 08:58:57;;;;;;;25.27;12.75;;;2.50;42.60;;;;;;5028177;28;20052;-79
2021/03/11 09:01:47;;;;;;;27.27;14.05;;;2.60;42.60;;;;;;5012660;28;20044;-79
2021/03/11 09:04:27;;;;;;;138.85;59.38;;;2.70;42.70;;;;;;5028564;28;20029;-79
2021/03/11 09:07:05;;;;;;;29.98;14.27;;;2.80;42.20;;;;;;5028722;28;20030;-79
2021/03/11 09:09:44;;;;;;;45.15;18.65;;;2.90;42.50;;;;;;5013062;28;20392;-79
2021/03/11 09:12:14;;;;;;;33.90;15.80;;;3.00;41.70;;;;;;5013195;28;20073;-79
2021/03/11 09:14:43;;;;;;;26.63;14.63;;;3.10;41.20;;;;;;5028089;28;20130;-78
2021/03/11 09:17:14;;;;;;;37.60;17.85;;;3.10;40.90;;;;;;5013148;28;20491;-79
2021/03/11 09:19:45;;;;;;;39.13;18.65;;;3.20;41.00;;;;;;5011834;28;20034;-79
2021/03/11 09:22:20;;;;;;;26.80;15.60;;;3.30;41.60;;;;;;5011896;28;20507;-79
2021/03/11 09:24:58;;;;;;;22.65;12.18;;;3.30;41.10;;;;;;5028077;28;20025;-79
2021/03/11 09:27:28;;;;;;;25.17;12.25;;;3.30;40.80;;;;;;5028034;28;20499;-79
2021/03/11 09:29:57;;;;;;;26.15;12.90;;;3.50;41.80;;;;;;5011788;28;20057;-79
2021/03/11 09:32:30;;;;;;;28.90;13.57;;;3.50;41.00;;;;;;5010628;28;20030;-79
2021/03/11 09:35:04;;;;;;;25.00;14.32;;;3.60;41.20;;;;;;5004552;28;20049;-79
2021/03/11 09:37:50;;;;;;;24.60;12.05;;;3.60;41.10;;;;;;5012883;28;20038;-79
2021/03/11 09:40:21;;;;;;;25.17;13.65;;;3.70;41.50;;;;;;5011759;28;20022;-79
2021/03/11 09:43:17;;;;;;;22.02;12.65;;;3.80;41.20;;;;;;5012247;28;20056;-79
2021/03/11 09:45:51;;;;;;;21.55;13.32;;;3.80;41.00;;;;;;5027759;28;20391;-79
2021/03/11 09:48:23;;;;;;;21.63;12.32;;;4.00;41.50;;;;;;5027937;28;20391;-79
2021/03/11 09:50:53;;;;;;;35.78;16.20;;;4.00;41.50;;;;;;5012624;28;20033;-79
2021/03/11 09:53:20;;;;;;;28.60;14.30;;;4.00;41.30;;;;;;5011273;28;20028;-79
2021/03/11 09:55:47;;;;;;;32.17;14.98;;;4.00;41.50;;;;;;5010803;28;20049;-79
2021/03/11 09:58:19;;;;;;;28.80;15.88;;;4.10;41.90;;;;;;5011417;28;20034;-79
2021/03/11 10:00:47;;;;;;;34.78;16.95;;;4.10;41.60;;;;;;5011326;28;20029;-80
2021/03/11 10:03:17;;;;;;;28.05;13.82;;;4.30;41.90;;;;;;5012478;28;20518;-79
2021/03/11 10:05:52;;;;;;;37.38;18.20;;;4.30;41.90;;;;;;5012499;28;20018;-80
2021/03/11 10:08:31;;;;;;;31.83;15.57;;;4.20;41.80;;;;;;5011158;28;20018;-79
2021/03/11 10:11:01;;;;;;;44.92;21.27;;;4.20;41.70;;;;;;5027475;28;20480;-80
2021/03/11 10:13:33;;;;;;;36.80;18.00;;;4.00;41.80;;;;;;5010726;28;20060;-79
2021/03/11 10:15:59;;;;;;;36.80;17.75;;;4.10;42.20;;;;;;5010983;28;20072;-79
2021/03/11 10:18:25;;;;;;;30.80;16.23;;;4.10;42.50;;;;;;5011070;28;20046;-79
2021/03/11 10:21:02;;;;;;;40.75;17.15;;;4.10;42.60;;;;;;5012422;28;20096;-79
2021/03/11 10:23:27;;;;;;;33.33;17.48;;;4.10;42.80;;;;;;5011028;28;20476;-79
2021/03/11 10:26:14;;;;;;;43.10;17.63;;;4.10;42.60;;;;;;5011082;28;20036;-79
2021/03/11 10:28:41;;;;;;;46.30;19.05;;;4.10;42.60;;;;;;5014823;28;20442;-79
2021/03/11 10:31:07;;;;;;;40.83;21.67;;;4.10;43.10;;;;;;5011107;28;20590;-79
2021/03/11 10:33:34;;;;;;;51.42;23.08;;;4.10;43.40;;;;;;5014118;28;20030;-79
2021/03/11 10:36:11;;;;;;;72.90;33.58;;;4.20;43.30;;;;;;5016246;28;20029;-80
2021/03/11 10:38:37;;;;;;;45.42;19.58;;;4.20;43.70;;;;;;5015867;28;20072;-79
2021/03/11 10:41:10;;;;;;;45.80;20.70;;;4.10;43.20;;;;;;5012990;28;20312;-79
2021/03/11 10:43:36;;;;;;;43.78;22.10;;;4.10;43.60;;;;;;5014452;28;20089;-80
2021/03/11 10:46:03;;;;;;;39.65;18.33;;;4.10;44.00;;;;;;5015619;28;20104;-79
2021/03/11 10:48:28;;;;;;;51.13;24.42;;;4.00;43.50;;;;;;5015441;28;20029;-80
2021/03/11 10:50:54;;;;;;;46.65;21.77;;;4.00;43.80;;;;;;5014307;28;20065;-80
2021/03/11 10:53:36;;;;;;;32.85;17.67;;;3.90;44.00;;;;;;5014676;28;20026;-80
2021/03/11 10:56:06;;;;;;;44.40;20.58;;;3.90;44.00;;;;;;5014392;28;20049;-79
2021/03/11 10:58:32;;;;;;;40.40;19.85;;;3.90;44.40;;;;;;5015608;28;20499;-79
2021/03/11 11:01:17;;;;;;;37.42;19.10;;;3.90;44.60;;;;;;5014614;28;20040;-79
2021/03/11 11:03:45;;;;;;;39.35;22.58;;;4.00;44.20;;;;;;5014346;28;20069;-79
2021/03/11 11:06:12;;;;;;;51.90;23.67;;;4.00;44.30;;;;;;5014376;28;20075;-80
2021/03/11 11:08:42;;;;;;;39.80;18.73;;;4.00;44.10;;;;;;5013737;28;20026;-80
2021/03/11 11:11:09;;;;;;;36.92;17.58;;;4.00;44.70;;;;;;5010141;28;20353;-79
2021/03/11 11:13:35;;;;;;;36.70;18.55;;;4.00;43.90;;;;;;5013286;28;20014;-79
2021/03/11 11:16:00;;;;;;;40.08;18.33;;;4.00;43.30;;;;;;5014909;28;20026;-79
2021/03/11 11:18:26;;;;;;;35.78;18.25;;;4.00;44.20;;;;;;5015361;28;20479;-80
2021/03/11 11:20:52;;;;;;;38.00;18.95;;;4.10;43.40;;;;;;5012314;28;20022;-79
2021/03/11 11:23:18;;;;;;;39.20;18.38;;;4.10;43.70;;;;;;5014736;28;20045;-80
2021/03/11 11:25:43;;;;;;;33.90;17.40;;;4.10;43.30;;;;;;5015134;28;20026;-80
2021/03/11 11:28:09;;;;;;;43.35;20.75;;;4.00;43.50;;;;;;5015102;28;20022;-80
2021/03/11 11:30:35;;;;;;;45.88;20.98;;;4.00;43.10;;;;;;5014998;28;20387;-80
2021/03/11 11:33:00;;;;;;;53.30;20.65;;;4.00;43.30;;;;;;5015011;28;20109;-80
2021/03/11 11:35:26;;;;;;;69.97;23.35;;;4.00;43.50;;;;;;5014910;28;20079;-80
2021/03/11 11:37:52;;;;;;;35.50;19.15;;;4.00;43.70;;;;;;5014789;28;20033;-80
2021/03/11 11:40:19;;;;;;;36.85;18.42;;;4.00;43.60;;;;;;5013917;28;20036;-80
2021/03/11 11:42:45;;;;;;;45.45;22.95;;;4.00;43.50;;;;;;5013117;28;20030;-80
2021/03/11 11:45:12;;;;;;;48.75;24.42;;;4.00;43.80;;;;;;5011977;28;20033;-80
2021/03/11 11:47:38;;;;;;;103.47;45.17;;;4.00;43.70;;;;;;5014922;28;20022;-80
2021/03/11 11:50:07;;;;;;;81.50;34.47;;;3.90;43.40;;;;;;5013453;28;20030;-81
2021/03/11 11:52:33;;;;;;;67.57;28.60;;;3.90;43.40;;;;;;5014640;28;20419;-81
2021/03/11 11:54:59;;;;;;;61.05;29.65;;;3.90;43.30;;;;;;5013464;28;20068;-81
2021/03/11 11:57:25;;;;;;;63.45;28.27;;;3.90;43.80;;;;;;5010315;28;20046;-80
2021/03/11 11:59:50;;;;;;;55.30;23.98;;;3.90;44.20;;;;;;5014119;28;20503;-80
2021/03/11 12:02:16;;;;;;;82.35;33.13;;;3.80;43.90;;;;;;5012172;28;20064;-80
2021/03/11 12:04:42;;;;;;;45.25;19.95;;;3.70;43.70;;;;;;5013506;28;20026;-80
2021/03/11 12:07:08;;;;;;;61.83;27.60;;;3.70;43.80;;;;;;5012631;28;20018;-80
2021/03/11 12:09:34;;;;;;;50.55;23.45;;;3.60;43.60;;;;;;5012559;28;20387;-81
2021/03/11 12:12:01;;;;;;;35.20;21.00;;;3.60;44.20;;;;;;5012858;28;20399;-81
2021/03/11 12:14:27;;;;;;;32.90;17.50;;;3.60;44.20;;;;;;5009027;28;20028;-81
2021/03/11 12:16:52;;;;;;;69.57;28.42;;;3.60;44.40;;;;;;5014160;28;20022;-80
2021/03/11 12:19:18;;;;;;;63.60;23.33;;;3.60;45.10;;;;;;5012385;28;20037;-81
2021/03/11 12:21:45;;;;;;;30.45;16.02;;;3.60;45.90;;;;;;5012929;28;20022;-80
2021/03/11 12:24:11;;;;;;;30.67;17.33;;;3.50;46.40;;;;;;5014015;28;20574;-80
2021/03/11 12:26:37;;;;;;;42.38;19.05;;;3.40;48.90;;;;;;5014049;28;20022;-81
2021/03/11 12:29:03;;;;;;;44.67;18.40;;;3.30;52.60;;;;;;5013061;28;20076;-80
2021/03/11 12:31:29;;;;;;;39.20;17.80;;;3.20;56.20;;;;;;5013867;28;20423;-81
2021/03/11 12:33:56;;;;;;;28.88;14.70;;;3.10;57.80;;;;;;5011357;28;20021;-80
2021/03/11 12:36:21;;;;;;;34.97;14.38;;;3.00;60.10;;;;;;5013735;28;20113;-81
2021/03/11 12:38:47;;;;;;;29.60;14.27;;;3.00;60.90;;;;;;5012210;28;20190;-80